Home   Weather   Shifting Sands   Past weeks
Flag for USA

Past Weather in Shifting Sands, California, USA — Yesterday and Last 2 Weeks

Currently: 55 °F. Low clouds. (Weather station: Catalina Airport, USA). See more current weather

Past Weather in Shifting Sands — Graph

°F

Shifting Sands Temperature Yesterday

Maximum temperature yesterday: 55 °F (at 2:51 pm)
Minimum temperature yesterday: 50 °F (at 3:51 am)
Average temperature yesterday: 52 °F

High & Low Weather Summary for the Past Weeks

 TemperatureHumidityPressure
High69 °F (Feb 23, 2:51 pm)100% (Feb 15, 9:51 pm)30.25 "Hg (Feb 15, 9:51 pm)
Low47 °F (Feb 17, 2:33 am)25% (Feb 23, 6:51 pm)29.96 "Hg (Feb 27, 3:51 am)
Average54 °F83%30.08 "Hg
* Reported Feb 15 3:22 pm — Mar 1 3:51 pm, Shifting Sands. Weather by CustomWeather, © 2024

Note: Actual official high and low records may vary slightly from our data, if they occured in-between our weather recording intervals... More about our weather records

Shifting Sands Weather History for the Previous 24 Hours

Scroll right to see more
 ConditionsComfort  
Time TempWeatherWind HumidityBarometerVisibility
3:51 pm
Fri, Mar 1
55 °FLow clouds.8 mph83%30.09 "Hg6 mi
3:42 pm54 °FFog.7 mph86%30.09 "Hg5 mi
3:27 pm54 °FCloudy.8 mph83%30.10 "Hg7 mi
2:51 pm57 °FBroken clouds.9 mph72%30.09 "Hg10 mi
1:51 pm56 °FMostly cloudy.10 mph75%30.11 "Hg10 mi
12:51 pm56 °FOvercast.8 mph75%30.13 "Hg10 mi
11:51 am56 °FOvercast.8 mph75%30.15 "Hg10 mi
10:51 am54 °FMostly cloudy.7 mph77%30.16 "Hg10 mi
10:11 am56 °FMostly cloudy.7 mph72%30.17 "Hg10 mi
10:03 am57 °FMore clouds than sun.6 mph72%30.17 "Hg10 mi
9:23 am54 °FMostly cloudy.6 mph74%30.17 "Hg10 mi
8:51 am53 °FBroken clouds.3 mph77%30.16 "Hg10 mi
7:51 am52 °FMostly cloudy.No wind80%30.16 "Hg10 mi
6:51 am50 °FOvercast.3 mph86%30.14 "Hg10 mi
5:51 am50 °FOvercast.3 mph80%30.15 "Hg10 mi
4:51 am49 °FPassing clouds.3 mph84%30.14 "Hg10 mi
3:51 am50 °FOvercast.3 mph80%30.13 "Hg10 mi
2:51 am50 °FMostly cloudy.3 mph89%30.14 "Hg10 mi
1:51 am50 °FOvercast.5 mph86%30.16 "Hg10 mi
1:08 am50 °FMostly cloudy.6 mph86%30.17 "Hg10 mi
12:13 am50 °FMostly cloudy.6 mph93%30.17 "Hg10 mi
10:51 pm
Thu, Feb 29
50 °FMostly cloudy.5 mph93%30.16 "Hg8 mi
9:51 pm51 °FMostly cloudy.5 mph89%30.16 "Hg10 mi
9:22 pm51 °FPassing clouds.5 mph89%30.16 "Hg10 mi
9:15 pm51 °FPartly cloudy.5 mph89%30.16 "Hg10 mi
8:51 pm50 °FPassing clouds.6 mph89%30.16 "Hg10 mi
8:31 pm50 °FPassing clouds.6 mph89%30.16 "Hg10 mi
7:51 pm50 °FPassing clouds.7 mph89%30.15 "Hg10 mi
7:36 pm50 °FPassing clouds.6 mph89%30.15 "Hg10 mi
7:14 pm50 °FPassing clouds.7 mph93%30.15 "Hg10 mi
6:43 pm51 °FPassing clouds.6 mph86%30.14 "Hg10 mi
6:32 pm51 °FPartly cloudy.7 mph86%30.14 "Hg10 mi
5:51 pm51 °FPassing clouds.7 mph83%30.14 "Hg10 mi
5:36 pm52 °FPassing clouds.8 mph83%30.14 "Hg10 mi
Weather by CustomWeather, © 2024

See weather overview